Overview Statistics Trail Chart Weather Telemetry Raw packets
 

This is the latest recevied weather packets stored in our database for station/object IU2RPR-3. If no packets are shown the sender has not sent any weather packets the latest 10 day(s).

<< 22 23 24 25 26 27 28 >>
Time Temp. Humidity Pressure Rain* Wind** Luminosity Snow
1787851036 29.44° C 51% 1015.5 hPa - - - -
1787850321 29.44° C 51% 1015.5 hPa - - - -
1787849115 30.56° C 48% 1015.3 hPa - - - -
1787847912 30.56° C 48% 1015.4 hPa - - - -
1787846710 31.67° C 47% 1015.5 hPa - - - -
1787845508 33.33° C 42% 1015.4 hPa - - - -
1787844302 32.78° C 42% 1015.6 hPa - - - -
1787843097 35.56° C 39% 1015.2 hPa - - - -
1787841890 33.89° C 42% 1015.4 hPa - - - -
1787840692 33.33° C 43% 1015.2 hPa - - - -
1787839474 32.78° C 44% 1015.3 hPa - - - -
1787838343 32.22° C 45% 1015.5 hPa - - - -
1787837063 31.11° C 47% 1015.5 hPa - - - -
1787835870 32.22° C 46% 1015.4 hPa - - - -
1787834742 30° C 49% 1015.8 hPa - - - -
1787833449 30.56° C 51% 1015.8 hPa - - - -
1787832245 30.56° C 52% 1015.9 hPa - - - -
1787831040 30.56° C 51% 1015.9 hPa - - - -
1787829848 29.44° C 52% 1016.1 hPa - - - -
1787828634 29.44° C 53% 1016 hPa - - - -
1787827432 28.33° C 59% 1016.2 hPa - - - -
1787826230 28.89° C 56% 1016.2 hPa - - - -
1787825031 28.33° C 57% 1016.1 hPa - - - -
1787823825 27.78° C 59% 1016.4 hPa - - - -
1787822620 26.67° C 61% 1016.5 hPa - - - -

* Rain since midnight (hover to see other rain measurements)
** Current wind speed in m/s (hover to see current wind gust speed)